sensor_id;sensor_type;location;lat;lon;timestamp;pressure;altitude;pressure_sealevel;temperature;humidity
77662;BME280;69666;52.136;5.424;2023-07-16T00:00:21;100920.66;;;18.34;75.64
77662;BME280;69666;52.136;5.424;2023-07-16T00:02:48;100911.59;;;18.35;74.56
77662;BME280;69666;52.136;5.424;2023-07-16T00:05:14;100918.72;;;18.36;74.74
77662;BME280;69666;52.136;5.424;2023-07-16T00:07:42;100917.84;;;18.35;74.36
77662;BME280;69666;52.136;5.424;2023-07-16T00:10:09;100922.38;;;18.35;73.96
77662;BME280;69666;52.136;5.424;2023-07-16T00:12:36;100925.16;;;18.33;74.82
77662;BME280;69666;52.136;5.424;2023-07-16T00:15:05;100921.72;;;18.31;74.81
77662;BME280;69666;52.136;5.424;2023-07-16T00:17:36;100913.94;;;18.27;74.36
77662;BME280;69666;52.136;5.424;2023-07-16T00:20:03;100912.97;;;18.28;73.83
77662;BME280;69666;52.136;5.424;2023-07-16T00:22:30;100916.72;;;18.25;74.72
77662;BME280;69666;52.136;5.424;2023-07-16T00:24:57;100923.84;;;18.26;73.83
77662;BME280;69666;52.136;5.424;2023-07-16T00:27:24;100916.72;;;18.25;74.10
77662;BME280;69666;52.136;5.424;2023-07-16T00:29:50;100912.41;;;18.22;73.47
77662;BME280;69666;52.136;5.424;2023-07-16T00:32:17;100924.81;;;18.25;73.55
77662;BME280;69666;52.136;5.424;2023-07-16T00:34:43;100916.81;;;18.23;74.24
77662;BME280;69666;52.136;5.424;2023-07-16T00:37:11;100924.91;;;18.23;74.79
77662;BME280;69666;52.136;5.424;2023-07-16T00:39:37;100926.72;;;18.23;73.51
77662;BME280;69666;52.136;5.424;2023-07-16T00:42:04;100922.59;;;18.17;73.38
77662;BME280;69666;52.136;5.424;2023-07-16T00:44:31;100925.41;;;18.16;73.91
77662;BME280;69666;52.136;5.424;2023-07-16T00:46:57;100925.41;;;18.16;73.95
77662;BME280;69666;52.136;5.424;2023-07-16T00:49:24;100929.16;;;18.13;73.62
77662;BME280;69666;52.136;5.424;2023-07-16T00:51:52;100928.28;;;18.13;73.81
77662;BME280;69666;52.136;5.424;2023-07-16T00:54:19;100930.22;;;18.11;73.51
77662;BME280;69666;52.136;5.424;2023-07-16T00:56:46;100935.78;;;18.08;73.69
77662;BME280;69666;52.136;5.424;2023-07-16T00:59:13;100936.00;;;18.05;73.90
77662;BME280;69666;52.136;5.424;2023-07-16T01:01:39;100940.53;;;18.04;74.32
77662;BME280;69666;52.136;5.424;2023-07-16T01:04:06;100939.66;;;18.04;74.69
77662;BME280;69666;52.136;5.424;2023-07-16T01:06:51;100943.41;;;18.01;74.27
77662;BME280;69666;52.136;5.424;2023-07-16T01:09:20;100938.09;;;18.00;74.41
77662;BME280;69666;52.136;5.424;2023-07-16T01:11:48;100940.91;;;17.98;74.22
77662;BME280;69666;52.136;5.424;2023-07-16T01:14:18;100940.03;;;17.98;74.98
77662;BME280;69666;52.136;5.424;2023-07-16T01:16:45;100933.03;;;17.95;75.22
77662;BME280;69666;52.136;5.424;2023-07-16T01:19:12;100932.16;;;17.95;75.10
77662;BME280;69666;52.136;5.424;2023-07-16T01:22:16;100926.97;;;17.92;74.95
77662;BME280;69666;52.136;5.424;2023-07-16T01:25:53;100929.75;;;17.90;75.16
77662;BME280;69666;52.136;5.424;2023-07-16T01:28:27;100921.75;;;17.88;75.07
77662;BME280;69666;52.136;5.424;2023-07-16T01:30:59;100932.53;;;17.88;74.86
77662;BME280;69666;52.136;5.424;2023-07-16T01:33:26;100922.72;;;17.87;75.48
77662;BME280;69666;52.136;5.424;2023-07-16T01:35:54;100928.97;;;17.88;76.11
77662;BME280;69666;52.136;5.424;2023-07-16T01:38:21;100933.50;;;17.87;75.23
77662;BME280;69666;52.136;5.424;2023-07-16T01:40:49;100925.63;;;17.84;75.18
77662;BME280;69666;52.136;5.424;2023-07-16T01:43:16;100924.63;;;17.85;75.71
77662;BME280;69666;52.136;5.424;2023-07-16T01:45:43;100925.72;;;17.83;76.36
77662;BME280;69666;52.136;5.424;2023-07-16T01:50:46;100930.34;;;17.81;75.78
77662;BME280;69666;52.136;5.424;2023-07-16T01:53:12;100930.34;;;17.81;76.11
77662;BME280;69666;52.136;5.424;2023-07-16T01:55:39;100936.78;;;17.78;76.30
77662;BME280;69666;52.136;5.424;2023-07-16T01:58:05;100929.66;;;17.77;76.45
77662;BME280;69666;52.136;5.424;2023-07-16T02:00:32;100931.47;;;17.77;76.48
77662;BME280;69666;52.136;5.424;2023-07-16T02:02:59;100936.09;;;17.75;76.83
77662;BME280;69666;52.136;5.424;2023-07-16T02:05:26;100939.72;;;17.74;76.85
77662;BME280;69666;52.136;5.424;2023-07-16T02:07:52;100925.44;;;17.73;76.57
77662;BME280;69666;52.136;5.424;2023-07-16T02:10:19;100928.22;;;17.72;77.19
77662;BME280;69666;52.136;5.424;2023-07-16T02:12:45;100935.44;;;17.71;77.24
77662;BME280;69666;52.136;5.424;2023-07-16T02:15:12;100933.78;;;17.69;78.36
77662;BME280;69666;52.136;5.424;2023-07-16T02:17:38;100929.28;;;17.69;78.15
77662;BME280;69666;52.136;5.424;2023-07-16T02:20:05;100929.44;;;17.66;78.32
77662;BME280;69666;52.136;5.424;2023-07-16T02:22:34;100930.31;;;17.67;79.08
77662;BME280;69666;52.136;5.424;2023-07-16T02:25:02;100933.00;;;17.67;78.89
77662;BME280;69666;52.136;5.424;2023-07-16T02:27:29;100928.69;;;17.64;78.89
77662;BME280;69666;52.136;5.424;2023-07-16T02:29:55;100928.81;;;17.63;78.73
77662;BME280;69666;52.136;5.424;2023-07-16T02:32:22;100928.81;;;17.63;79.29
77662;BME280;69666;52.136;5.424;2023-07-16T02:34:50;100930.69;;;17.61;78.86
77662;BME280;69666;52.136;5.424;2023-07-16T02:37:16;100935.19;;;17.60;78.88
77662;BME280;69666;52.136;5.424;2023-07-16T02:39:45;100936.94;;;17.61;79.55
77662;BME280;69666;52.136;5.424;2023-07-16T02:42:12;100942.50;;;17.58;79.54
77662;BME280;69666;52.136;5.424;2023-07-16T02:44:39;100932.59;;;17.59;79.49
77662;BME280;69666;52.136;5.424;2023-07-16T02:47:11;100937.97;;;17.59;79.58
77662;BME280;69666;52.136;5.424;2023-07-16T02:49:39;100937.81;;;17.62;80.12
77662;BME280;69666;52.136;5.424;2023-07-16T02:52:06;100943.09;;;17.63;80.01
77662;BME280;69666;52.136;5.424;2023-07-16T02:54:34;100940.41;;;17.63;80.41
77662;BME280;69666;52.136;5.424;2023-07-16T02:57:01;100937.72;;;17.63;80.40
77662;BME280;69666;52.136;5.424;2023-07-16T02:59:28;100937.72;;;17.63;79.86
77662;BME280;69666;52.136;5.424;2023-07-16T03:01:55;100940.50;;;17.62;79.85
77662;BME280;69666;52.136;5.424;2023-07-16T03:04:21;100942.41;;;17.60;80.25
77662;BME280;69666;52.136;5.424;2023-07-16T03:06:48;100944.22;;;17.59;80.08
77662;BME280;69666;52.136;5.424;2023-07-16T03:09:15;100949.69;;;17.58;80.26
77662;BME280;69666;52.136;5.424;2023-07-16T03:11:41;100953.44;;;17.55;80.34
77662;BME280;69666;52.136;5.424;2023-07-16T03:14:08;100954.47;;;17.52;80.74
77662;BME280;69666;52.136;5.424;2023-07-16T03:16:35;100951.78;;;17.52;80.17
77662;BME280;69666;52.136;5.424;2023-07-16T03:19:01;100952.78;;;17.51;80.86
77662;BME280;69666;52.136;5.424;2023-07-16T03:21:29;100952.97;;;17.48;81.02
77662;BME280;69666;52.136;5.424;2023-07-16T03:23:56;100957.56;;;17.46;80.95
77662;BME280;69666;52.136;5.424;2023-07-16T03:26:23;100949.66;;;17.43;82.12
77662;BME280;69666;52.136;5.424;2023-07-16T03:28:49;100954.19;;;17.43;81.05
77662;BME280;69666;52.136;5.424;2023-07-16T03:31:16;100947.19;;;17.40;80.92
77662;BME280;69666;52.136;5.424;2023-07-16T03:33:43;100947.28;;;17.39;81.17
77662;BME280;69666;52.136;5.424;2023-07-16T03:36:09;100957.25;;;17.37;81.33
77662;BME280;69666;52.136;5.424;2023-07-16T03:38:36;100957.34;;;17.35;81.89
77662;BME280;69666;52.136;5.424;2023-07-16T03:41:02;100959.06;;;17.36;82.26
77662;BME280;69666;52.136;5.424;2023-07-16T03:43:29;100961.00;;;17.34;81.84
77662;BME280;69666;52.136;5.424;2023-07-16T03:45:56;100962.81;;;17.34;81.72
77662;BME280;69666;52.136;5.424;2023-07-16T03:48:22;100974.75;;;17.30;82.23
77662;BME280;69666;52.136;5.424;2023-07-16T03:50:49;100984.63;;;17.29;82.88
77662;BME280;69666;52.136;5.424;2023-07-16T03:53:15;100975.59;;;17.30;82.05
77662;BME280;69666;52.136;5.424;2023-07-16T03:55:42;100976.44;;;17.31;82.29
77662;BME280;69666;52.136;5.424;2023-07-16T03:58:09;100975.59;;;17.30;82.38
77662;BME280;69666;52.136;5.424;2023-07-16T04:00:35;100973.94;;;17.28;82.50
77662;BME280;69666;52.136;5.424;2023-07-16T04:03:02;100997.28;;;17.27;82.37
77662;BME280;69666;52.136;5.424;2023-07-16T04:05:29;101000.94;;;17.26;83.44
77662;BME280;69666;52.136;5.424;2023-07-16T04:07:55;100997.38;;;17.26;81.68
77662;BME280;69666;52.136;5.424;2023-07-16T04:10:22;101002.84;;;17.24;82.45
77662;BME280;69666;52.136;5.424;2023-07-16T04:12:49;101006.41;;;17.25;83.06
77662;BME280;69666;52.136;5.424;2023-07-16T04:15:15;100994.78;;;17.24;83.20
77662;BME280;69666;52.136;5.424;2023-07-16T04:17:42;100993.81;;;17.25;82.84
77662;BME280;69666;52.136;5.424;2023-07-16T04:20:09;101006.31;;;17.26;82.77
77662;BME280;69666;52.136;5.424;2023-07-16T04:22:36;101007.19;;;17.27;83.37
77662;BME280;69666;52.136;5.424;2023-07-16T04:25:03;100998.34;;;17.25;83.04
77662;BME280;69666;52.136;5.424;2023-07-16T04:27:31;101009.19;;;17.23;82.59
77662;BME280;69666;52.136;5.424;2023-07-16T04:29:58;101012.75;;;17.24;82.70
77662;BME280;69666;52.136;5.424;2023-07-16T04:32:24;101012.75;;;17.24;82.89
77662;BME280;69666;52.136;5.424;2023-07-16T04:34:51;101017.06;;;17.26;82.84
77662;BME280;69666;52.136;5.424;2023-07-16T04:37:18;101020.63;;;17.27;82.14
77662;BME280;69666;52.136;5.424;2023-07-16T04:39:44;101020.63;;;17.27;81.79
77662;BME280;69666;52.136;5.424;2023-07-16T04:42:11;101023.25;;;17.28;82.16
77662;BME280;69666;52.136;5.424;2023-07-16T04:44:38;101035.75;;;17.29;82.98
77662;BME280;69666;52.136;5.424;2023-07-16T04:47:04;101025.84;;;17.30;82.35
77662;BME280;69666;52.136;5.424;2023-07-16T04:49:35;101036.50;;;17.31;82.67
77662;BME280;69666;52.136;5.424;2023-07-16T04:52:05;101036.59;;;17.30;82.09
77662;BME280;69666;52.136;5.424;2023-07-16T04:54:38;101031.97;;;17.32;82.17
77662;BME280;69666;52.136;5.424;2023-07-16T04:57:06;101038.31;;;17.31;83.10
77662;BME280;69666;52.136;5.424;2023-07-16T04:59:34;101041.00;;;17.31;83.28
77662;BME280;69666;52.136;5.424;2023-07-16T05:02:04;101048.13;;;17.32;82.13
77662;BME280;69666;52.136;5.424;2023-07-16T05:04:32;101046.28;;;17.32;82.13
77662;BME280;69666;52.136;5.424;2023-07-16T05:07:01;101049.94;;;17.31;81.84
77662;BME280;69666;52.136;5.424;2023-07-16T05:09:28;101040.91;;;17.32;81.84
77662;BME280;69666;52.136;5.424;2023-07-16T05:11:55;101047.16;;;17.33;81.97
77662;BME280;69666;52.136;5.424;2023-07-16T05:14:22;101043.53;;;17.34;81.92
77662;BME280;69666;52.136;5.424;2023-07-16T05:16:48;101037.97;;;17.37;82.41
77662;BME280;69666;52.136;5.424;2023-07-16T05:19:15;101048.72;;;17.37;81.38
77662;BME280;69666;52.136;5.424;2023-07-16T05:21:42;101037.88;;;17.38;81.55
77662;BME280;69666;52.136;5.424;2023-07-16T05:24:08;101037.69;;;17.41;81.60
77662;BME280;69666;52.136;5.424;2023-07-16T05:26:35;101042.22;;;17.41;82.09
77662;BME280;69666;52.136;5.424;2023-07-16T05:29:02;101044.72;;;17.44;81.53
77662;BME280;69666;52.136;5.424;2023-07-16T05:31:28;101045.50;;;17.46;81.27
77662;BME280;69666;52.136;5.424;2023-07-16T05:33:55;101048.97;;;17.48;81.06
77662;BME280;69666;52.136;5.424;2023-07-16T05:36:22;101057.81;;;17.50;81.76
77662;BME280;69666;52.136;5.424;2023-07-16T05:38:48;101064.94;;;17.51;81.70
77662;BME280;69666;52.136;5.424;2023-07-16T05:41:16;101068.38;;;17.53;80.58
77662;BME280;69666;52.136;5.424;2023-07-16T05:43:42;101076.19;;;17.58;80.63
77662;BME280;69666;52.136;5.424;2023-07-16T05:46:09;101077.66;;;17.63;79.74
77662;BME280;69666;52.136;5.424;2023-07-16T05:48:36;101072.09;;;17.66;80.39
77662;BME280;69666;52.136;5.424;2023-07-16T05:51:03;101084.84;;;17.78;80.41
77662;BME280;69666;52.136;5.424;2023-07-16T05:53:29;101077.75;;;17.92;78.93
77662;BME280;69666;52.136;5.424;2023-07-16T05:55:56;101080.50;;;18.06;79.12
77662;BME280;69666;52.136;5.424;2023-07-16T05:58:23;101091.94;;;18.23;78.92
77662;BME280;69666;52.136;5.424;2023-07-16T06:00:50;101086.09;;;18.45;78.07
77662;BME280;69666;52.136;5.424;2023-07-16T06:03:17;101079.38;;;18.67;77.23
77662;BME280;69666;52.136;5.424;2023-07-16T06:05:45;101079.91;;;18.86;76.93
77662;BME280;69666;52.136;5.424;2023-07-16T06:08:12;101078.06;;;19.01;76.12
77662;BME280;69666;52.136;5.424;2023-07-16T06:10:38;101081.78;;;19.12;75.33
77662;BME280;69666;52.136;5.424;2023-07-16T06:13:05;101075.72;;;19.36;75.20
77662;BME280;69666;52.136;5.424;2023-07-16T06:15:32;101084.34;;;19.55;74.28
77662;BME280;69666;52.136;5.424;2023-07-16T06:17:59;101084.38;;;19.67;74.94
77662;BME280;69666;52.136;5.424;2023-07-16T06:20:26;101091.56;;;19.94;72.77
77662;BME280;69666;52.136;5.424;2023-07-16T06:22:53;101096.22;;;20.17;71.65
77662;BME280;69666;52.136;5.424;2023-07-16T06:25:20;101092.16;;;20.37;71.83
77662;BME280;69666;52.136;5.424;2023-07-16T06:27:47;101092.69;;;20.42;69.34
77662;BME280;69666;52.136;5.424;2023-07-16T06:30:13;101096.88;;;20.59;69.72
77662;BME280;69666;52.136;5.424;2023-07-16T06:32:40;101093.75;;;20.65;69.80
77662;BME280;69666;52.136;5.424;2023-07-16T06:35:08;101097.72;;;20.85;69.30
77662;BME280;69666;52.136;5.424;2023-07-16T06:37:34;101094.22;;;20.95;68.44
77662;BME280;69666;52.136;5.424;2023-07-16T06:40:01;101103.59;;;21.15;68.53
77662;BME280;69666;52.136;5.424;2023-07-16T06:42:28;101094.13;;;21.33;67.09
77662;BME280;69666;52.136;5.424;2023-07-16T06:44:54;101092.28;;;21.34;66.59
77662;BME280;69666;52.136;5.424;2023-07-16T06:47:21;101103.06;;;21.46;65.95
77662;BME280;69666;52.136;5.424;2023-07-16T06:49:48;101092.91;;;21.61;66.11
77662;BME280;69666;52.136;5.424;2023-07-16T06:52:22;101096.94;;;21.91;66.56
77662;BME280;69666;52.136;5.424;2023-07-16T06:54:48;101102.56;;;22.00;64.41
77662;BME280;69666;52.136;5.424;2023-07-16T06:57:15;101105.66;;;22.18;64.22
77662;BME280;69666;52.136;5.424;2023-07-16T06:59:42;101105.81;;;22.50;63.17
77662;BME280;69666;52.136;5.424;2023-07-16T07:02:08;101100.16;;;22.64;62.14
77662;BME280;69666;52.136;5.424;2023-07-16T07:04:35;101115.16;;;22.81;64.19
77662;BME280;69666;52.136;5.424;2023-07-16T07:07:01;101107.00;;;22.92;63.38
77662;BME280;69666;52.136;5.424;2023-07-16T07:09:28;101111.28;;;23.06;63.38
77662;BME280;69666;52.136;5.424;2023-07-16T07:11:55;101128.06;;;23.11;61.12
77662;BME280;69666;52.136;5.424;2023-07-16T07:14:21;101112.75;;;23.21;62.34
77662;BME280;69666;52.136;5.424;2023-07-16T07:16:48;101129.69;;;23.13;61.14
77662;BME280;69666;52.136;5.424;2023-07-16T07:19:15;101134.00;;;22.93;61.28
77662;BME280;69666;52.136;5.424;2023-07-16T07:21:41;101130.53;;;22.69;62.09
77662;BME280;69666;52.136;5.424;2023-07-16T07:24:08;101137.69;;;22.59;63.09
77662;BME280;69666;52.136;5.424;2023-07-16T07:26:35;101142.66;;;22.87;62.10
77662;BME280;69666;52.136;5.424;2023-07-16T07:29:01;101152.47;;;22.66;62.21
77662;BME280;69666;52.136;5.424;2023-07-16T07:31:28;101129.59;;;22.81;62.53
77662;BME280;69666;52.136;5.424;2023-07-16T07:33:55;101147.31;;;23.08;63.07
77662;BME280;69666;52.136;5.424;2023-07-16T07:36:23;101151.22;;;23.26;61.12
77662;BME280;69666;52.136;5.424;2023-07-16T07:38:50;101145.28;;;23.43;61.96
77662;BME280;69666;52.136;5.424;2023-07-16T07:41:16;101149.00;;;23.53;61.88
77662;BME280;69666;52.136;5.424;2023-07-16T07:43:43;101143.41;;;23.66;60.45
77662;BME280;69666;52.136;5.424;2023-07-16T07:46:11;101145.00;;;24.21;57.58
77662;BME280;69666;52.136;5.424;2023-07-16T07:48:37;101156.91;;;23.56;60.32
77662;BME280;69666;52.136;5.424;2023-07-16T07:51:04;101156.91;;;23.34;59.83
77662;BME280;69666;52.136;5.424;2023-07-16T07:53:31;101162.16;;;23.04;61.26
77662;BME280;69666;52.136;5.424;2023-07-16T07:55:58;101169.84;;;22.64;61.38
77662;BME280;69666;52.136;5.424;2023-07-16T07:58:24;101174.13;;;22.33;61.30
77662;BME280;69666;52.136;5.424;2023-07-16T08:00:51;101169.75;;;22.19;63.21
77662;BME280;69666;52.136;5.424;2023-07-16T08:03:17;101176.59;;;22.01;64.30
77662;BME280;69666;52.136;5.424;2023-07-16T08:05:44;101179.81;;;21.82;65.35
77662;BME280;69666;52.136;5.424;2023-07-16T08:08:14;101182.88;;;21.77;65.42
77662;BME280;69666;52.136;5.424;2023-07-16T08:10:42;101188.34;;;22.12;64.48
77662;BME280;69666;52.136;5.424;2023-07-16T08:13:08;101177.19;;;22.39;63.20
77662;BME280;69666;52.136;5.424;2023-07-16T08:15:35;101195.59;;;22.36;64.19
77662;BME280;69666;52.136;5.424;2023-07-16T08:18:02;101186.72;;;22.45;64.28
77662;BME280;69666;52.136;5.424;2023-07-16T08:20:28;101208.63;;;22.31;64.22
77662;BME280;69666;52.136;5.424;2023-07-16T08:22:55;101210.97;;;22.24;65.14
77662;BME280;69666;52.136;5.424;2023-07-16T08:25:22;101205.03;;;22.30;64.81
77662;BME280;69666;52.136;5.424;2023-07-16T08:27:49;101205.66;;;22.23;64.63
77662;BME280;69666;52.136;5.424;2023-07-16T08:30:15;101199.44;;;22.55;64.91
77662;BME280;69666;52.136;5.424;2023-07-16T08:32:42;101196.19;;;22.85;64.12
77662;BME280;69666;52.136;5.424;2023-07-16T08:35:09;101192.50;;;22.98;63.01
77662;BME280;69666;52.136;5.424;2023-07-16T08:37:43;101206.56;;;22.91;61.90
77662;BME280;69666;52.136;5.424;2023-07-16T08:40:11;101204.19;;;22.76;62.78
77662;BME280;69666;52.136;5.424;2023-07-16T08:42:40;101202.13;;;22.79;65.07
77662;BME280;69666;52.136;5.424;2023-07-16T08:45:10;101219.63;;;22.75;64.43
77662;BME280;69666;52.136;5.424;2023-07-16T08:47:37;101200.28;;;22.45;64.54
77662;BME280;69666;52.136;5.424;2023-07-16T08:50:04;101236.94;;;22.15;64.33
77662;BME280;69666;52.136;5.424;2023-07-16T08:52:31;101226.09;;;22.15;65.65
77662;BME280;69666;52.136;5.424;2023-07-16T08:54:57;101223.38;;;22.15;66.18
77662;BME280;69666;52.136;5.424;2023-07-16T08:57:26;101233.09;;;21.94;65.67
77662;BME280;69666;52.136;5.424;2023-07-16T08:59:54;101227.69;;;21.94;66.44
77662;BME280;69666;52.136;5.424;2023-07-16T09:02:22;101236.63;;;22.07;67.25
77662;BME280;69666;52.136;5.424;2023-07-16T09:04:50;101246.66;;;22.18;66.47
77662;BME280;69666;52.136;5.424;2023-07-16T09:07:19;101243.72;;;22.21;65.79
77662;BME280;69666;52.136;5.424;2023-07-16T09:09:59;101249.19;;;22.32;66.39
77662;BME280;69666;52.136;5.424;2023-07-16T09:12:27;101244.78;;;22.42;65.12
77662;BME280;69666;52.136;5.424;2023-07-16T09:14:54;101242.38;;;22.62;66.68
77662;BME280;69666;52.136;5.424;2023-07-16T09:17:22;101246.41;;;22.80;64.66
77662;BME280;69666;52.136;5.424;2023-07-16T09:19:51;101237.91;;;23.07;65.03
77662;BME280;69666;52.136;5.424;2023-07-16T09:22:19;101247.31;;;23.14;62.99
77662;BME280;69666;52.136;5.424;2023-07-16T09:24:46;101250.00;;;22.91;63.26
77662;BME280;69666;52.136;5.424;2023-07-16T09:27:14;101273.22;;;22.72;63.43
77662;BME280;69666;52.136;5.424;2023-07-16T09:29:41;101254.78;;;22.42;63.76
77662;BME280;69666;52.136;5.424;2023-07-16T09:32:07;101267.13;;;22.46;63.41
77662;BME280;69666;52.136;5.424;2023-07-16T09:34:34;101265.66;;;22.53;62.93
77662;BME280;69666;52.136;5.424;2023-07-16T09:37:02;101261.38;;;22.62;63.52
77662;BME280;69666;52.136;5.424;2023-07-16T09:39:29;101258.19;;;22.68;62.89
77662;BME280;69666;52.136;5.424;2023-07-16T09:41:55;101257.69;;;22.74;62.56
77662;BME280;69666;52.136;5.424;2023-07-16T09:44:23;101255.97;;;22.73;62.84
77662;BME280;69666;52.136;5.424;2023-07-16T09:46:50;101271.69;;;22.45;64.82
77662;BME280;69666;52.136;5.424;2023-07-16T09:49:17;101260.69;;;22.36;64.50
77662;BME280;69666;52.136;5.424;2023-07-16T09:51:45;101264.16;;;22.38;64.85
77662;BME280;69666;52.136;5.424;2023-07-16T09:54:13;101281.03;;;22.41;66.21
77662;BME280;69666;52.136;5.424;2023-07-16T09:56:46;101277.81;;;22.36;65.28
77662;BME280;69666;52.136;5.424;2023-07-16T09:59:21;101271.53;;;22.36;66.16
77662;BME280;69666;52.136;5.424;2023-07-16T10:04:18;101284.38;;;22.45;65.10
77662;BME280;69666;52.136;5.424;2023-07-16T10:07:00;101277.34;;;22.42;64.77
77662;BME280;69666;52.136;5.424;2023-07-16T10:14:42;101288.00;;;22.91;64.10
77662;BME280;69666;52.136;5.424;2023-07-16T10:17:20;101283.63;;;23.35;65.04
77662;BME280;69666;52.136;5.424;2023-07-16T10:22:42;101284.94;;;24.60;61.21
77662;BME280;69666;52.136;5.424;2023-07-16T10:25:22;101284.56;;;24.86;60.96
77662;BME280;69666;52.136;5.424;2023-07-16T10:27:51;101289.53;;;24.60;59.04
77662;BME280;69666;52.136;5.424;2023-07-16T10:30:18;101295.59;;;24.20;58.87
77662;BME280;69666;52.136;5.424;2023-07-16T10:32:46;101298.28;;;23.88;61.15
77662;BME280;69666;52.136;5.424;2023-07-16T10:35:13;101303.75;;;23.44;60.54
77662;BME280;69666;52.136;5.424;2023-07-16T10:37:40;101311.13;;;23.19;62.03
77662;BME280;69666;52.136;5.424;2023-07-16T10:40:12;101310.97;;;22.99;62.54
77662;BME280;69666;52.136;5.424;2023-07-16T10:42:41;101311.66;;;22.78;62.88
77662;BME280;69666;52.136;5.424;2023-07-16T10:45:13;101320.97;;;22.74;64.03
77662;BME280;69666;52.136;5.424;2023-07-16T10:47:51;101325.53;;;22.74;63.99
77662;BME280;69666;52.136;5.424;2023-07-16T10:50:19;101325.28;;;22.89;64.10
77662;BME280;69666;52.136;5.424;2023-07-16T10:52:55;101329.22;;;22.97;63.07
77662;BME280;69666;52.136;5.424;2023-07-16T10:55:23;101330.88;;;23.10;64.45
77662;BME280;69666;52.136;5.424;2023-07-16T10:57:52;101329.91;;;23.22;62.75
77662;BME280;69666;52.136;5.424;2023-07-16T11:00:22;101314.72;;;23.42;62.30
77662;BME280;69666;52.136;5.424;2023-07-16T11:02:52;101333.38;;;23.36;63.79
77662;BME280;69666;52.136;5.424;2023-07-16T11:05:19;101340.88;;;23.21;62.53
77662;BME280;69666;52.136;5.424;2023-07-16T11:07:48;101345.34;;;23.22;65.00
77662;BME280;69666;52.136;5.424;2023-07-16T11:10:20;101333.84;;;23.29;62.94
77662;BME280;69666;52.136;5.424;2023-07-16T11:12:51;101350.78;;;23.33;63.39
77662;BME280;69666;52.136;5.424;2023-07-16T11:15:34;101333.03;;;23.51;64.45
77662;BME280;69666;52.136;5.424;2023-07-16T11:18:02;101339.09;;;23.77;62.33
77662;BME280;69666;52.136;5.424;2023-07-16T11:20:30;101344.53;;;23.77;62.56
77662;BME280;69666;52.136;5.424;2023-07-16T11:22:58;101342.56;;;23.57;62.80
77662;BME280;69666;52.136;5.424;2023-07-16T11:25:27;101349.53;;;23.48;62.83
77662;BME280;69666;52.136;5.424;2023-07-16T11:27:56;101351.03;;;23.30;63.29
77662;BME280;69666;52.136;5.424;2023-07-16T11:30:23;101353.50;;;23.33;62.81
77662;BME280;69666;52.136;5.424;2023-07-16T11:32:51;101352.84;;;23.18;64.02
77662;BME280;69666;52.136;5.424;2023-07-16T11:35:19;101359.91;;;23.21;63.70
77662;BME280;69666;52.136;5.424;2023-07-16T11:37:47;101361.53;;;23.35;63.71
77662;BME280;69666;52.136;5.424;2023-07-16T11:40:18;101367.09;;;23.44;63.72
77662;BME280;69666;52.136;5.424;2023-07-16T11:42:46;101360.72;;;23.68;64.39
77662;BME280;69666;52.136;5.424;2023-07-16T11:45:18;101364.16;;;23.92;65.97
77662;BME280;69666;52.136;5.424;2023-07-16T11:47:46;101381.72;;;23.88;61.02
77662;BME280;69666;52.136;5.424;2023-07-16T11:50:13;101379.97;;;23.87;61.96
77662;BME280;69666;52.136;5.424;2023-07-16T11:52:40;101372.47;;;23.79;60.36
77662;BME280;69666;52.136;5.424;2023-07-16T11:55:07;101372.19;;;23.82;60.52
77662;BME280;69666;52.136;5.424;2023-07-16T11:57:34;101375.75;;;24.05;60.13
77662;BME280;69666;52.136;5.424;2023-07-16T12:00:03;101395.66;;;23.94;56.68
77662;BME280;69666;52.136;5.424;2023-07-16T12:02:30;101381.84;;;23.75;57.56
77662;BME280;69666;52.136;5.424;2023-07-16T12:04:57;101384.69;;;23.74;57.76
77662;BME280;69666;52.136;5.424;2023-07-16T12:07:35;101389.63;;;23.57;57.42
77662;BME280;69666;52.136;5.424;2023-07-16T12:10:04;101382.66;;;23.42;57.49
77662;BME280;69666;52.136;5.424;2023-07-16T12:12:32;101373.91;;;23.50;59.26
77662;BME280;69666;52.136;5.424;2023-07-16T12:15:00;101373.44;;;23.67;57.81
77662;BME280;69666;52.136;5.424;2023-07-16T12:17:26;101376.75;;;23.82;59.48
77662;BME280;69666;52.136;5.424;2023-07-16T12:19:53;101375.75;;;24.05;59.88
77662;BME280;69666;52.136;5.424;2023-07-16T12:22:21;101387.13;;;24.10;58.79
77662;BME280;69666;52.136;5.424;2023-07-16T12:24:48;101380.97;;;23.97;57.78
77662;BME280;69666;52.136;5.424;2023-07-16T12:27:15;101389.84;;;24.10;59.28
77662;BME280;69666;52.136;5.424;2023-07-16T12:29:43;101391.94;;;24.18;58.97
77662;BME280;69666;52.136;5.424;2023-07-16T12:32:10;101375.63;;;24.07;55.99
77662;BME280;69666;52.136;5.424;2023-07-16T12:34:37;101390.00;;;23.97;58.35
77662;BME280;69666;52.136;5.424;2023-07-16T12:37:04;101381.84;;;23.97;58.34
77662;BME280;69666;52.136;5.424;2023-07-16T12:39:30;101382.06;;;24.06;57.25
77662;BME280;69666;52.136;5.424;2023-07-16T12:41:57;101394.44;;;24.10;57.59
77662;BME280;69666;52.136;5.424;2023-07-16T12:44:24;101388.34;;;24.17;57.44
77662;BME280;69666;52.136;5.424;2023-07-16T12:46:50;101399.50;;;24.25;58.14
77662;BME280;69666;52.136;5.424;2023-07-16T12:49:18;101389.47;;;24.26;57.37
77662;BME280;69666;52.136;5.424;2023-07-16T12:51:45;101388.38;;;24.28;56.76
77662;BME280;69666;52.136;5.424;2023-07-16T12:54:12;101394.16;;;24.35;56.39
77662;BME280;69666;52.136;5.424;2023-07-16T12:56:38;101392.03;;;24.38;55.59
77662;BME280;69666;52.136;5.424;2023-07-16T12:59:05;101390.19;;;24.39;55.98
77662;BME280;69666;52.136;5.424;2023-07-16T13:01:32;101400.53;;;24.56;57.80
77662;BME280;69666;52.136;5.424;2023-07-16T13:03:59;101407.47;;;24.49;55.70
77662;BME280;69666;52.136;5.424;2023-07-16T13:06:26;101387.56;;;24.49;55.50